sensor_id;sensor_type;location;lat;lon;timestamp;temperature;humidity
21047;DHT22;10682;50.874;3.656;2023-09-07T00:00:33;17.20;99.90
21047;DHT22;10682;50.874;3.656;2023-09-07T00:03:00;17.20;99.90
21047;DHT22;10682;50.874;3.656;2023-09-07T00:05:27;17.20;99.90
21047;DHT22;10682;50.874;3.656;2023-09-07T00:07:54;17.20;99.90
21047;DHT22;10682;50.874;3.656;2023-09-07T00:10:23;17.10;99.90
21047;DHT22;10682;50.874;3.656;2023-09-07T00:12:52;17.10;99.90
21047;DHT22;10682;50.874;3.656;2023-09-07T00:15:23;17.00;99.90
21047;DHT22;10682;50.874;3.656;2023-09-07T00:17:53;16.90;99.90
21047;DHT22;10682;50.874;3.656;2023-09-07T00:20:20;16.80;99.90
21047;DHT22;10682;50.874;3.656;2023-09-07T00:22:50;16.80;99.90
21047;DHT22;10682;50.874;3.656;2023-09-07T00:25:17;16.70;99.90
21047;DHT22;10682;50.874;3.656;2023-09-07T00:27:45;16.60;99.90
21047;DHT22;10682;50.874;3.656;2023-09-07T00:30:12;16.50;99.90
21047;DHT22;10682;50.874;3.656;2023-09-07T00:32:39;16.50;99.90
21047;DHT22;10682;50.874;3.656;2023-09-07T00:35:08;16.50;99.90
21047;DHT22;10682;50.874;3.656;2023-09-07T00:37:35;16.50;99.90
21047;DHT22;10682;50.874;3.656;2023-09-07T00:40:04;16.50;99.90
21047;DHT22;10682;50.874;3.656;2023-09-07T00:42:36;16.40;99.90
21047;DHT22;10682;50.874;3.656;2023-09-07T00:45:04;16.40;99.90
21047;DHT22;10682;50.874;3.656;2023-09-07T00:47:34;16.40;99.90
21047;DHT22;10682;50.874;3.656;2023-09-07T00:50:06;16.50;99.90
21047;DHT22;10682;50.874;3.656;2023-09-07T00:52:37;16.50;99.90
21047;DHT22;10682;50.874;3.656;2023-09-07T00:55:07;16.50;99.90
21047;DHT22;10682;50.874;3.656;2023-09-07T00:57:36;16.50;99.90
21047;DHT22;10682;50.874;3.656;2023-09-07T01:00:06;16.50;99.90
21047;DHT22;10682;50.874;3.656;2023-09-07T01:02:35;16.50;99.90
21047;DHT22;10682;50.874;3.656;2023-09-07T01:05:02;16.50;99.90
21047;DHT22;10682;50.874;3.656;2023-09-07T01:07:40;16.60;99.90
21047;DHT22;10682;50.874;3.656;2023-09-07T01:10:10;16.50;99.90
21047;DHT22;10682;50.874;3.656;2023-09-07T01:12:37;16.50;99.90
21047;DHT22;10682;50.874;3.656;2023-09-07T01:15:05;16.50;99.90
21047;DHT22;10682;50.874;3.656;2023-09-07T01:17:33;16.50;99.90
21047;DHT22;10682;50.874;3.656;2023-09-07T01:20:05;16.50;99.90
21047;DHT22;10682;50.874;3.656;2023-09-07T01:22:37;16.40;99.90
21047;DHT22;10682;50.874;3.656;2023-09-07T01:25:07;16.40;99.90
21047;DHT22;10682;50.874;3.656;2023-09-07T01:27:35;16.40;99.90
21047;DHT22;10682;50.874;3.656;2023-09-07T01:30:02;16.40;99.90
21047;DHT22;10682;50.874;3.656;2023-09-07T01:32:30;16.30;99.90
21047;DHT22;10682;50.874;3.656;2023-09-07T01:34:58;16.30;99.90
21047;DHT22;10682;50.874;3.656;2023-09-07T01:37:25;16.20;99.90
21047;DHT22;10682;50.874;3.656;2023-09-07T01:39:52;16.10;99.90
21047;DHT22;10682;50.874;3.656;2023-09-07T01:42:19;16.10;99.90
21047;DHT22;10682;50.874;3.656;2023-09-07T01:44:48;16.10;99.90
21047;DHT22;10682;50.874;3.656;2023-09-07T01:47:16;16.10;99.90
21047;DHT22;10682;50.874;3.656;2023-09-07T01:49:43;16.10;99.90
21047;DHT22;10682;50.874;3.656;2023-09-07T01:52:10;16.10;99.90
21047;DHT22;10682;50.874;3.656;2023-09-07T01:54:37;16.10;99.90
21047;DHT22;10682;50.874;3.656;2023-09-07T01:57:05;16.10;99.90
21047;DHT22;10682;50.874;3.656;2023-09-07T01:59:32;16.10;99.90
21047;DHT22;10682;50.874;3.656;2023-09-07T02:01:59;16.10;99.90
21047;DHT22;10682;50.874;3.656;2023-09-07T02:04:26;16.10;99.90
21047;DHT22;10682;50.874;3.656;2023-09-07T02:06:54;16.10;99.90
21047;DHT22;10682;50.874;3.656;2023-09-07T02:09:21;16.10;99.90
21047;DHT22;10682;50.874;3.656;2023-09-07T02:11:50;16.10;99.90
21047;DHT22;10682;50.874;3.656;2023-09-07T02:14:17;16.10;99.90
21047;DHT22;10682;50.874;3.656;2023-09-07T02:16:44;16.10;99.90
21047;DHT22;10682;50.874;3.656;2023-09-07T02:19:11;16.00;99.90
21047;DHT22;10682;50.874;3.656;2023-09-07T02:21:38;16.00;99.90
21047;DHT22;10682;50.874;3.656;2023-09-07T02:24:05;16.00;99.90
21047;DHT22;10682;50.874;3.656;2023-09-07T02:26:33;15.90;99.90
21047;DHT22;10682;50.874;3.656;2023-09-07T02:29:00;15.80;99.90
21047;DHT22;10682;50.874;3.656;2023-09-07T02:31:30;15.80;99.90
21047;DHT22;10682;50.874;3.656;2023-09-07T02:33:57;15.80;99.90
21047;DHT22;10682;50.874;3.656;2023-09-07T02:36:24;15.80;99.90
21047;DHT22;10682;50.874;3.656;2023-09-07T02:38:51;15.80;99.90
21047;DHT22;10682;50.874;3.656;2023-09-07T02:41:18;15.80;99.90
21047;DHT22;10682;50.874;3.656;2023-09-07T02:43:45;15.70;99.90
21047;DHT22;10682;50.874;3.656;2023-09-07T02:46:12;15.70;99.90
21047;DHT22;10682;50.874;3.656;2023-09-07T02:48:40;15.60;99.90
21047;DHT22;10682;50.874;3.656;2023-09-07T02:51:07;15.60;99.90
21047;DHT22;10682;50.874;3.656;2023-09-07T02:53:34;15.50;99.90
21047;DHT22;10682;50.874;3.656;2023-09-07T02:56:01;15.50;99.90
21047;DHT22;10682;50.874;3.656;2023-09-07T02:58:31;15.40;99.90
21047;DHT22;10682;50.874;3.656;2023-09-07T03:01:06;15.40;99.90
21047;DHT22;10682;50.874;3.656;2023-09-07T03:03:35;15.40;99.90
21047;DHT22;10682;50.874;3.656;2023-09-07T03:06:11;15.40;99.90
21047;DHT22;10682;50.874;3.656;2023-09-07T03:08:40;15.40;99.90
21047;DHT22;10682;50.874;3.656;2023-09-07T03:11:09;15.40;99.90
21047;DHT22;10682;50.874;3.656;2023-09-07T03:13:36;15.40;99.90
21047;DHT22;10682;50.874;3.656;2023-09-07T03:16:04;15.50;99.90
21047;DHT22;10682;50.874;3.656;2023-09-07T03:18:32;15.50;99.90
21047;DHT22;10682;50.874;3.656;2023-09-07T03:21:01;15.60;99.90
21047;DHT22;10682;50.874;3.656;2023-09-07T03:23:30;15.70;99.90
21047;DHT22;10682;50.874;3.656;2023-09-07T03:25:59;15.60;99.90
21047;DHT22;10682;50.874;3.656;2023-09-07T03:28:27;15.60;99.90
21047;DHT22;10682;50.874;3.656;2023-09-07T03:30:55;15.60;99.90
21047;DHT22;10682;50.874;3.656;2023-09-07T03:33:22;15.50;99.90
21047;DHT22;10682;50.874;3.656;2023-09-07T03:35:50;15.50;99.90
21047;DHT22;10682;50.874;3.656;2023-09-07T03:38:18;15.40;99.90
21047;DHT22;10682;50.874;3.656;2023-09-07T03:40:46;15.30;99.90
21047;DHT22;10682;50.874;3.656;2023-09-07T03:43:13;15.20;99.90
21047;DHT22;10682;50.874;3.656;2023-09-07T03:45:40;15.10;99.90
21047;DHT22;10682;50.874;3.656;2023-09-07T03:48:07;15.10;99.90
21047;DHT22;10682;50.874;3.656;2023-09-07T03:50:37;15.10;99.90
21047;DHT22;10682;50.874;3.656;2023-09-07T03:53:04;15.10;99.90
21047;DHT22;10682;50.874;3.656;2023-09-07T03:55:40;15.10;99.90
21047;DHT22;10682;50.874;3.656;2023-09-07T03:58:12;15.10;99.90
21047;DHT22;10682;50.874;3.656;2023-09-07T04:00:40;15.10;99.90
21047;DHT22;10682;50.874;3.656;2023-09-07T04:03:08;15.10;99.90
21047;DHT22;10682;50.874;3.656;2023-09-07T04:05:41;15.10;99.90
21047;DHT22;10682;50.874;3.656;2023-09-07T04:08:09;15.10;99.90
21047;DHT22;10682;50.874;3.656;2023-09-07T04:10:37;15.00;99.90
21047;DHT22;10682;50.874;3.656;2023-09-07T04:13:05;15.10;99.90
21047;DHT22;10682;50.874;3.656;2023-09-07T04:15:34;15.10;99.90
21047;DHT22;10682;50.874;3.656;2023-09-07T04:18:09;15.10;99.90
21047;DHT22;10682;50.874;3.656;2023-09-07T04:20:36;15.10;99.90
21047;DHT22;10682;50.874;3.656;2023-09-07T04:23:04;15.10;99.90
21047;DHT22;10682;50.874;3.656;2023-09-07T04:25:31;15.10;99.90
21047;DHT22;10682;50.874;3.656;2023-09-07T04:27:59;15.00;99.90
21047;DHT22;10682;50.874;3.656;2023-09-07T04:30:27;15.00;99.90
21047;DHT22;10682;50.874;3.656;2023-09-07T04:32:54;15.00;99.90
21047;DHT22;10682;50.874;3.656;2023-09-07T04:35:26;15.00;99.90
21047;DHT22;10682;50.874;3.656;2023-09-07T04:37:56;15.00;99.90
21047;DHT22;10682;50.874;3.656;2023-09-07T04:40:24;14.90;99.90
21047;DHT22;10682;50.874;3.656;2023-09-07T04:42:51;14.90;99.90
21047;DHT22;10682;50.874;3.656;2023-09-07T04:45:19;14.80;99.90
21047;DHT22;10682;50.874;3.656;2023-09-07T04:47:46;14.70;99.90
21047;DHT22;10682;50.874;3.656;2023-09-07T04:50:13;14.60;99.90
21047;DHT22;10682;50.874;3.656;2023-09-07T04:52:40;14.60;99.90
21047;DHT22;10682;50.874;3.656;2023-09-07T04:55:08;14.50;99.90
21047;DHT22;10682;50.874;3.656;2023-09-07T04:57:36;14.50;99.90
21047;DHT22;10682;50.874;3.656;2023-09-07T05:00:05;14.40;99.90
21047;DHT22;10682;50.874;3.656;2023-09-07T05:02:35;14.30;99.90
21047;DHT22;10682;50.874;3.656;2023-09-07T05:05:09;14.30;99.90
21047;DHT22;10682;50.874;3.656;2023-09-07T05:07:36;14.30;99.90
21047;DHT22;10682;50.874;3.656;2023-09-07T05:10:04;14.30;99.90
21047;DHT22;10682;50.874;3.656;2023-09-07T05:12:33;14.40;99.90
21047;DHT22;10682;50.874;3.656;2023-09-07T05:15:00;14.40;99.90
21047;DHT22;10682;50.874;3.656;2023-09-07T05:17:28;14.40;99.90
21047;DHT22;10682;50.874;3.656;2023-09-07T05:19:55;14.40;99.90
21047;DHT22;10682;50.874;3.656;2023-09-07T05:22:22;14.40;99.90
21047;DHT22;10682;50.874;3.656;2023-09-07T05:24:49;14.40;99.90
21047;DHT22;10682;50.874;3.656;2023-09-07T05:27:16;14.30;99.90
21047;DHT22;10682;50.874;3.656;2023-09-07T05:29:44;14.40;99.90
21047;DHT22;10682;50.874;3.656;2023-09-07T05:32:11;14.40;99.90
21047;DHT22;10682;50.874;3.656;2023-09-07T05:34:39;14.40;99.90
21047;DHT22;10682;50.874;3.656;2023-09-07T05:37:06;14.50;99.90
21047;DHT22;10682;50.874;3.656;2023-09-07T05:39:34;14.50;99.90
21047;DHT22;10682;50.874;3.656;2023-09-07T05:42:01;14.60;99.90
21047;DHT22;10682;50.874;3.656;2023-09-07T05:44:29;14.60;99.90
21047;DHT22;10682;50.874;3.656;2023-09-07T05:46:56;14.70;99.90
21047;DHT22;10682;50.874;3.656;2023-09-07T05:49:25;14.70;99.90
21047;DHT22;10682;50.874;3.656;2023-09-07T05:51:52;14.80;99.90
21047;DHT22;10682;50.874;3.656;2023-09-07T05:54:20;14.80;99.90
21047;DHT22;10682;50.874;3.656;2023-09-07T05:56:47;14.90;99.90
21047;DHT22;10682;50.874;3.656;2023-09-07T05:59:14;15.00;99.90
21047;DHT22;10682;50.874;3.656;2023-09-07T06:01:42;15.00;99.90
21047;DHT22;10682;50.874;3.656;2023-09-07T06:04:09;15.00;99.90
21047;DHT22;10682;50.874;3.656;2023-09-07T06:06:36;15.10;99.90
21047;DHT22;10682;50.874;3.656;2023-09-07T06:09:04;15.20;99.90
21047;DHT22;10682;50.874;3.656;2023-09-07T06:11:31;15.30;99.90
21047;DHT22;10682;50.874;3.656;2023-09-07T06:13:59;15.40;99.90
21047;DHT22;10682;50.874;3.656;2023-09-07T06:16:26;15.50;99.90
21047;DHT22;10682;50.874;3.656;2023-09-07T06:18:53;15.50;99.90
21047;DHT22;10682;50.874;3.656;2023-09-07T06:21:20;15.70;99.90
21047;DHT22;10682;50.874;3.656;2023-09-07T06:23:47;15.80;99.90
21047;DHT22;10682;50.874;3.656;2023-09-07T06:26:14;15.90;99.90
21047;DHT22;10682;50.874;3.656;2023-09-07T06:28:44;16.00;99.90
21047;DHT22;10682;50.874;3.656;2023-09-07T06:31:11;16.10;99.90
21047;DHT22;10682;50.874;3.656;2023-09-07T06:33:41;16.20;99.90
21047;DHT22;10682;50.874;3.656;2023-09-07T06:36:08;16.30;99.90
21047;DHT22;10682;50.874;3.656;2023-09-07T06:38:36;16.40;99.90
21047;DHT22;10682;50.874;3.656;2023-09-07T06:41:03;16.50;99.90
21047;DHT22;10682;50.874;3.656;2023-09-07T06:43:31;16.60;99.90
21047;DHT22;10682;50.874;3.656;2023-09-07T06:46:06;16.70;99.90
21047;DHT22;10682;50.874;3.656;2023-09-07T06:48:35;16.80;99.90
21047;DHT22;10682;50.874;3.656;2023-09-07T06:51:06;17.00;99.90
21047;DHT22;10682;50.874;3.656;2023-09-07T06:53:34;17.20;99.90
21047;DHT22;10682;50.874;3.656;2023-09-07T06:56:21;17.40;99.90
21047;DHT22;10682;50.874;3.656;2023-09-07T06:58:51;17.80;99.90
21047;DHT22;10682;50.874;3.656;2023-09-07T07:01:19;18.30;99.90
21047;DHT22;10682;50.874;3.656;2023-09-07T07:03:46;19.20;99.90
21047;DHT22;10682;50.874;3.656;2023-09-07T07:06:14;20.10;99.90
21047;DHT22;10682;50.874;3.656;2023-09-07T07:08:41;20.50;99.90
21047;DHT22;10682;50.874;3.656;2023-09-07T07:11:08;20.60;99.90
21047;DHT22;10682;50.874;3.656;2023-09-07T07:13:35;20.50;99.90
21047;DHT22;10682;50.874;3.656;2023-09-07T07:16:04;20.30;99.90
21047;DHT22;10682;50.874;3.656;2023-09-07T07:18:32;20.10;99.90
21047;DHT22;10682;50.874;3.656;2023-09-07T07:20:59;20.00;99.90
21047;DHT22;10682;50.874;3.656;2023-09-07T07:23:26;20.00;99.90
21047;DHT22;10682;50.874;3.656;2023-09-07T07:25:53;20.10;99.90
21047;DHT22;10682;50.874;3.656;2023-09-07T07:28:21;20.20;99.90
21047;DHT22;10682;50.874;3.656;2023-09-07T07:30:48;20.40;99.90
21047;DHT22;10682;50.874;3.656;2023-09-07T07:33:16;20.80;99.90
21047;DHT22;10682;50.874;3.656;2023-09-07T07:35:43;21.50;99.90
21047;DHT22;10682;50.874;3.656;2023-09-07T07:38:12;22.60;99.90
21047;DHT22;10682;50.874;3.656;2023-09-07T07:40:42;23.50;99.90
21047;DHT22;10682;50.874;3.656;2023-09-07T07:43:09;24.00;99.90
21047;DHT22;10682;50.874;3.656;2023-09-07T07:45:37;24.30;99.90
21047;DHT22;10682;50.874;3.656;2023-09-07T07:48:05;24.60;99.90
21047;DHT22;10682;50.874;3.656;2023-09-07T07:50:38;25.10;99.90
21047;DHT22;10682;50.874;3.656;2023-09-07T07:53:06;25.90;99.90
21047;DHT22;10682;50.874;3.656;2023-09-07T07:55:36;26.70;99.90
21047;DHT22;10682;50.874;3.656;2023-09-07T07:58:09;27.20;99.90
21047;DHT22;10682;50.874;3.656;2023-09-07T08:00:37;27.80;99.90
21047;DHT22;10682;50.874;3.656;2023-09-07T08:03:05;28.20;99.90
21047;DHT22;10682;50.874;3.656;2023-09-07T08:05:34;28.40;99.90
21047;DHT22;10682;50.874;3.656;2023-09-07T08:08:01;28.60;99.90
21047;DHT22;10682;50.874;3.656;2023-09-07T08:10:32;28.90;99.90
21047;DHT22;10682;50.874;3.656;2023-09-07T08:13:01;29.00;99.90
21047;DHT22;10682;50.874;3.656;2023-09-07T08:15:31;29.10;99.90
21047;DHT22;10682;50.874;3.656;2023-09-07T08:17:59;29.00;99.90
21047;DHT22;10682;50.874;3.656;2023-09-07T08:20:27;28.90;99.90
21047;DHT22;10682;50.874;3.656;2023-09-07T08:22:54;28.80;99.90
21047;DHT22;10682;50.874;3.656;2023-09-07T08:25:21;28.60;99.90
21047;DHT22;10682;50.874;3.656;2023-09-07T08:27:50;28.40;99.90
21047;DHT22;10682;50.874;3.656;2023-09-07T08:30:17;28.20;99.90
21047;DHT22;10682;50.874;3.656;2023-09-07T08:32:45;28.10;99.90
21047;DHT22;10682;50.874;3.656;2023-09-07T08:35:13;27.80;99.90
21047;DHT22;10682;50.874;3.656;2023-09-07T08:37:41;27.60;99.90
21047;DHT22;10682;50.874;3.656;2023-09-07T08:40:08;27.30;99.90
21047;DHT22;10682;50.874;3.656;2023-09-07T08:42:38;27.00;99.90
21047;DHT22;10682;50.874;3.656;2023-09-07T08:45:08;26.90;99.90
21047;DHT22;10682;50.874;3.656;2023-09-07T08:47:37;26.70;99.90
21047;DHT22;10682;50.874;3.656;2023-09-07T08:50:06;26.60;99.90
21047;DHT22;10682;50.874;3.656;2023-09-07T08:52:34;26.60;99.90
21047;DHT22;10682;50.874;3.656;2023-09-07T08:55:02;26.70;99.90
21047;DHT22;10682;50.874;3.656;2023-09-07T08:57:31;26.70;99.90
21047;DHT22;10682;50.874;3.656;2023-09-07T08:59:59;26.70;99.90
21047;DHT22;10682;50.874;3.656;2023-09-07T09:02:26;26.70;99.90
21047;DHT22;10682;50.874;3.656;2023-09-07T09:04:54;26.80;99.90
21047;DHT22;10682;50.874;3.656;2023-09-07T09:07:21;26.90;99.90
21047;DHT22;10682;50.874;3.656;2023-09-07T09:09:49;27.00;99.90
21047;DHT22;10682;50.874;3.656;2023-09-07T09:12:17;27.10;99.90
21047;DHT22;10682;50.874;3.656;2023-09-07T09:14:44;27.10;99.90
21047;DHT22;10682;50.874;3.656;2023-09-07T09:17:15;27.30;99.90
21047;DHT22;10682;50.874;3.656;2023-09-07T09:19:42;27.40;99.90
21047;DHT22;10682;50.874;3.656;2023-09-07T09:22:10;27.50;99.90
21047;DHT22;10682;50.874;3.656;2023-09-07T09:24:38;27.60;99.90
21047;DHT22;10682;50.874;3.656;2023-09-07T09:27:05;27.70;99.90
21047;DHT22;10682;50.874;3.656;2023-09-07T09:29:33;27.80;99.90
21047;DHT22;10682;50.874;3.656;2023-09-07T09:32:05;27.90;99.90
21047;DHT22;10682;50.874;3.656;2023-09-07T09:34:35;28.10;99.90
21047;DHT22;10682;50.874;3.656;2023-09-07T09:37:03;28.30;99.90
21047;DHT22;10682;50.874;3.656;2023-09-07T09:39:31;28.50;99.90
21047;DHT22;10682;50.874;3.656;2023-09-07T09:41:58;28.60;99.90
21047;DHT22;10682;50.874;3.656;2023-09-07T09:44:28;28.60;99.90
21047;DHT22;10682;50.874;3.656;2023-09-07T09:46:56;28.70;99.90
21047;DHT22;10682;50.874;3.656;2023-09-07T09:49:24;28.70;99.90
21047;DHT22;10682;50.874;3.656;2023-09-07T09:51:53;28.90;99.90
21047;DHT22;10682;50.874;3.656;2023-09-07T09:54:21;29.00;99.90
21047;DHT22;10682;50.874;3.656;2023-09-07T09:56:51;29.20;99.90
21047;DHT22;10682;50.874;3.656;2023-09-07T09:59:18;29.20;99.90
21047;DHT22;10682;50.874;3.656;2023-09-07T10:01:47;29.50;99.90
21047;DHT22;10682;50.874;3.656;2023-09-07T10:04:18;29.60;99.90
21047;DHT22;10682;50.874;3.656;2023-09-07T10:06:56;29.80;99.90
21047;DHT22;10682;50.874;3.656;2023-09-07T10:09:35;30.10;99.90
21047;DHT22;10682;50.874;3.656;2023-09-07T10:12:11;30.30;99.90
21047;DHT22;10682;50.874;3.656;2023-09-07T10:14:43;30.40;99.90
21047;DHT22;10682;50.874;3.656;2023-09-07T10:17:21;30.50;99.90
21047;DHT22;10682;50.874;3.656;2023-09-07T10:19:49;30.60;99.90
21047;DHT22;10682;50.874;3.656;2023-09-07T10:22:22;30.70;99.90
21047;DHT22;10682;50.874;3.656;2023-09-07T10:24:58;30.80;99.90
21047;DHT22;10682;50.874;3.656;2023-09-07T10:27:36;30.80;99.90
21047;DHT22;10682;50.874;3.656;2023-09-07T10:30:10;30.90;99.90
21047;DHT22;10682;50.874;3.656;2023-09-07T10:32:40;31.10;99.90
21047;DHT22;10682;50.874;3.656;2023-09-07T10:35:15;31.20;99.90
21047;DHT22;10682;50.874;3.656;2023-09-07T10:37:47;31.30;99.90
21047;DHT22;10682;50.874;3.656;2023-09-07T10:40:21;31.50;99.90
21047;DHT22;10682;50.874;3.656;2023-09-07T10:42:49;31.60;99.90
21047;DHT22;10682;50.874;3.656;2023-09-07T10:45:16;31.70;99.90
21047;DHT22;10682;50.874;3.656;2023-09-07T10:47:45;31.80;99.90
21047;DHT22;10682;50.874;3.656;2023-09-07T10:50:13;31.80;99.90
21047;DHT22;10682;50.874;3.656;2023-09-07T10:52:41;31.80;99.90
21047;DHT22;10682;50.874;3.656;2023-09-07T10:55:10;31.80;99.90
21047;DHT22;10682;50.874;3.656;2023-09-07T10:57:47;31.70;99.90
21047;DHT22;10682;50.874;3.656;2023-09-07T11:00:16;31.90;99.90
21047;DHT22;10682;50.874;3.656;2023-09-07T11:02:43;31.90;99.90
21047;DHT22;10682;50.874;3.656;2023-09-07T11:05:11;31.80;99.90
21047;DHT22;10682;50.874;3.656;2023-09-07T11:07:38;31.80;99.90
21047;DHT22;10682;50.874;3.656;2023-09-07T11:10:08;32.00;99.90
21047;DHT22;10682;50.874;3.656;2023-09-07T11:12:38;32.30;99.90
21047;DHT22;10682;50.874;3.656;2023-09-07T11:15:10;32.30;99.90
21047;DHT22;10682;50.874;3.656;2023-09-07T11:17:38;32.60;99.90
21047;DHT22;10682;50.874;3.656;2023-09-07T11:20:09;32.70;99.90
21047;DHT22;10682;50.874;3.656;2023-09-07T11:22:37;32.50;99.90
21047;DHT22;10682;50.874;3.656;2023-09-07T11:25:25;32.30;99.90
21047;DHT22;10682;50.874;3.656;2023-09-07T11:27:52;32.50;99.90
21047;DHT22;10682;50.874;3.656;2023-09-07T11:30:22;32.50;99.90
21047;DHT22;10682;50.874;3.656;2023-09-07T11:33:06;32.60;99.90
21047;DHT22;10682;50.874;3.656;2023-09-07T11:35:35;32.70;99.90
21047;DHT22;10682;50.874;3.656;2023-09-07T11:38:04;32.80;99.90
21047;DHT22;10682;50.874;3.656;2023-09-07T11:40:33;32.80;99.90
21047;DHT22;10682;50.874;3.656;2023-09-07T11:43:02;32.70;99.90
21047;DHT22;10682;50.874;3.656;2023-09-07T11:45:30;32.50;99.90
21047;DHT22;10682;50.874;3.656;2023-09-07T11:47:59;32.50;99.90
21047;DHT22;10682;50.874;3.656;2023-09-07T11:50:26;32.80;99.90
21047;DHT22;10682;50.874;3.656;2023-09-07T11:52:57;33.00;99.90
21047;DHT22;10682;50.874;3.656;2023-09-07T11:55:24;33.10;99.90
21047;DHT22;10682;50.874;3.656;2023-09-07T11:57:52;33.00;99.90
21047;DHT22;10682;50.874;3.656;2023-09-07T12:00:19;33.00;99.90
21047;DHT22;10682;50.874;3.656;2023-09-07T12:02:50;33.20;99.90
21047;DHT22;10682;50.874;3.656;2023-09-07T12:05:17;33.40;99.90
21047;DHT22;10682;50.874;3.656;2023-09-07T12:07:46;33.50;99.90
21047;DHT22;10682;50.874;3.656;2023-09-07T12:10:14;33.50;99.90
21047;DHT22;10682;50.874;3.656;2023-09-07T12:12:42;33.40;99.90
21047;DHT22;10682;50.874;3.656;2023-09-07T12:15:11;33.40;99.90
21047;DHT22;10682;50.874;3.656;2023-09-07T12:17:39;33.50;99.90
21047;DHT22;10682;50.874;3.656;2023-09-07T12:20:07;33.50;99.90
21047;DHT22;10682;50.874;3.656;2023-09-07T12:22:37;33.60;99.90
21047;DHT22;10682;50.874;3.656;2023-09-07T12:25:05;33.70;99.90
21047;DHT22;10682;50.874;3.656;2023-09-07T12:27:45;33.70;99.90
21047;DHT22;10682;50.874;3.656;2023-09-07T12:30:18;33.70;99.90
21047;DHT22;10682;50.874;3.656;2023-09-07T12:32:48;33.70;99.90
21047;DHT22;10682;50.874;3.656;2023-09-07T12:35:17;33.80;99.90
21047;DHT22;10682;50.874;3.656;2023-09-07T12:37:47;33.90;99.90
21047;DHT22;10682;50.874;3.656;2023-09-07T12:40:14;33.80;99.90
21047;DHT22;10682;50.874;3.656;2023-09-07T12:42:46;33.80;99.90
21047;DHT22;10682;50.874;3.656;2023-09-07T12:45:14;33.60;99.90
21047;DHT22;10682;50.874;3.656;2023-09-07T12:47:42;33.80;99.90
21047;DHT22;10682;50.874;3.656;2023-09-07T12:50:11;33.80;99.90
21047;DHT22;10682;50.874;3.656;2023-09-07T12:52:39;33.70;99.90
21047;DHT22;10682;50.874;3.656;2023-09-07T12:55:08;33.50;99.90
21047;DHT22;10682;50.874;3.656;2023-09-07T12:57:35;33.40;99.90
21047;DHT22;10682;50.874;3.656;2023-09-07T13:00:07;33.30;99.90
21047;DHT22;10682;50.874;3.656;2023-09-07T13:02:38;33.30;99.90
21047;DHT22;10682;50.874;3.656;2023-09-07T13:05:06;33.20;99.90
21047;DHT22;10682;50.874;3.656;2023-09-07T13:07:34;33.10;99.90
21047;DHT22;10682;50.874;3.656;2023-09-07T13:10:02;33.40;99.90
21047;DHT22;10682;50.874;3.656;2023-09-07T13:12:31;33.60;99.90
21047;DHT22;10682;50.874;3.656;2023-09-07T13:14:59;33.60;99.90
21047;DHT22;10682;50.874;3.656;2023-09-07T13:17:27;33.60;99.90
21047;DHT22;10682;50.874;3.656;2023-09-07T13:19:54;33.70;99.90
21047;DHT22;10682;50.874;3.656;2023-09-07T13:22:22;33.70;99.90
21047;DHT22;10682;50.874;3.656;2023-09-07T13:24:49;33.50;99.90
21047;DHT22;10682;50.874;3.656;2023-09-07T13:27:17;33.60;99.90
21047;DHT22;10682;50.874;3.656;2023-09-07T13:29:44;33.70;99.90
21047;DHT22;10682;50.874;3.656;2023-09-07T13:32:11;33.60;99.90
21047;DHT22;10682;50.874;3.656;2023-09-07T13:34:39;33.70;99.90
21047;DHT22;10682;50.874;3.656;2023-09-07T13:37:06;33.70;99.90
21047;DHT22;10682;50.874;3.656;2023-09-07T13:39:33;33.70;99.90
21047;DHT22;10682;50.874;3.656;2023-09-07T13:42:00;33.40;99.90
21047;DHT22;10682;50.874;3.656;2023-09-07T13:44:28;33.10;99.90
21047;DHT22;10682;50.874;3.656;2023-09-07T13:46:55;33.10;99.90
21047;DHT22;10682;50.874;3.656;2023-09-07T13:49:22;32.90;99.90
21047;DHT22;10682;50.874;3.656;2023-09-07T13:51:50;32.70;99.90
21047;DHT22;10682;50.874;3.656;2023-09-07T13:54:17;32.80;99.90
21047;DHT22;10682;50.874;3.656;2023-09-07T13:56:44;32.70;99.90
21047;DHT22;10682;50.874;3.656;2023-09-07T13:59:13;32.70;99.90
21047;DHT22;10682;50.874;3.656;2023-09-07T14:01:40;32.70;99.90
21047;DHT22;10682;50.874;3.656;2023-09-07T14:04:08;32.40;99.90
21047;DHT22;10682;50.874;3.656;2023-09-07T14:06:35;32.00;99.90
21047;DHT22;10682;50.874;3.656;2023-09-07T14:09:02;31.80;99.90
21047;DHT22;10682;50.874;3.656;2023-09-07T14:11:29;31.80;99.90
21047;DHT22;10682;50.874;3.656;2023-09-07T14:13:57;31.80;99.90
21047;DHT22;10682;50.874;3.656;2023-09-07T14:16:24;31.70;99.90
21047;DHT22;10682;50.874;3.656;2023-09-07T14:18:52;31.80;99.90
21047;DHT22;10682;50.874;3.656;2023-09-07T14:21:20;31.60;99.90
21047;DHT22;10682;50.874;3.656;2023-09-07T14:23:47;31.70;99.90
21047;DHT22;10682;50.874;3.656;2023-09-07T14:26:14;31.60;99.90
21047;DHT22;10682;50.874;3.656;2023-09-07T14:28:42;31.50;99.90
21047;DHT22;10682;50.874;3.656;2023-09-07T14:31:09;31.50;99.90
21047;DHT22;10682;50.874;3.656;2023-09-07T14:33:37;31.40;99.90
21047;DHT22;10682;50.874;3.656;2023-09-07T14:36:06;31.20;99.90
21047;DHT22;10682;50.874;3.656;2023-09-07T14:38:39;31.10;99.90
21047;DHT22;10682;50.874;3.656;2023-09-07T14:41:12;31.00;99.90
21047;DHT22;10682;50.874;3.656;2023-09-07T14:43:47;30.80;99.90
21047;DHT22;10682;50.874;3.656;2023-09-07T14:46:15;30.60;99.90
21047;DHT22;10682;50.874;3.656;2023-09-07T14:48:44;30.70;99.90
21047;DHT22;10682;50.874;3.656;2023-09-07T14:51:12;30.60;99.90
21047;DHT22;10682;50.874;3.656;2023-09-07T14:53:39;30.50;99.90
21047;DHT22;10682;50.874;3.656;2023-09-07T14:56:06;30.50;99.90
21047;DHT22;10682;50.874;3.656;2023-09-07T14:58:34;30.50;99.90
21047;DHT22;10682;50.874;3.656;2023-09-07T15:01:01;30.40;99.90
21047;DHT22;10682;50.874;3.656;2023-09-07T15:03:30;30.40;99.90
21047;DHT22;10682;50.874;3.656;2023-09-07T15:05:57;30.30;99.90
21047;DHT22;10682;50.874;3.656;2023-09-07T15:08:25;30.30;99.90
21047;DHT22;10682;50.874;3.656;2023-09-07T15:10:52;30.30;99.90
21047;DHT22;10682;50.874;3.656;2023-09-07T15:13:19;30.30;99.90
21047;DHT22;10682;50.874;3.656;2023-09-07T15:15:48;30.30;99.90
21047;DHT22;10682;50.874;3.656;2023-09-07T15:18:15;30.30;99.90
21047;DHT22;10682;50.874;3.656;2023-09-07T15:20:43;30.20;99.90
21047;DHT22;10682;50.874;3.656;2023-09-07T15:23:10;30.10;99.90
21047;DHT22;10682;50.874;3.656;2023-09-07T15:25:37;30.20;99.90
21047;DHT22;10682;50.874;3.656;2023-09-07T15:28:06;30.10;99.90
21047;DHT22;10682;50.874;3.656;2023-09-07T15:30:36;30.10;99.90
21047;DHT22;10682;50.874;3.656;2023-09-07T15:33:04;30.20;99.90
21047;DHT22;10682;50.874;3.656;2023-09-07T15:35:41;30.10;99.90
21047;DHT22;10682;50.874;3.656;2023-09-07T15:47:24;29.90;99.90